createdAt,value
2018-02-02T00:01:54.884Z,0.41
2018-02-02T00:04:23.196Z,0.37
2018-02-02T00:06:52.327Z,0.35
2018-02-02T00:09:20.660Z,0.30
2018-02-02T00:11:49.791Z,0.29
2018-02-02T00:14:18.551Z,0.32
2018-02-02T00:16:47.287Z,0.33
2018-02-02T00:19:16.394Z,0.35
2018-02-02T00:21:44.724Z,0.31
2018-02-02T00:24:13.096Z,0.27
2018-02-02T00:26:41.470Z,0.28
2018-02-02T00:29:09.797Z,0.23
2018-02-02T00:31:38.142Z,0.28
2018-02-02T00:34:06.490Z,0.29
2018-02-02T00:36:35.578Z,0.28
2018-02-02T00:39:04.810Z,0.31
2018-02-02T00:41:33.163Z,0.22
2018-02-02T00:44:02.254Z,0.18
2018-02-02T00:46:30.638Z,0.22
2018-02-02T00:48:58.955Z,0.28
2018-02-02T00:51:32.883Z,0.28
2018-02-02T00:54:01.202Z,0.24
2018-02-02T00:56:29.530Z,0.19
2018-02-02T00:58:57.903Z,0.13
2018-02-02T01:01:26.262Z,0.16
2018-02-02T01:03:54.570Z,0.22
2018-02-02T01:06:22.954Z,-0.15
2018-02-02T01:08:51.278Z,0.11
2018-02-02T01:11:19.631Z,0.06
2018-02-02T01:13:47.988Z,-0.01
2018-02-02T01:16:16.318Z,-0.03
2018-02-02T01:18:44.686Z,-0.02
2018-02-02T01:21:13.010Z,-0.07
2018-02-02T01:23:41.402Z,-0.12
2018-02-02T01:26:09.728Z,-0.16
2018-02-02T01:28:38.058Z,-0.17
2018-02-02T01:31:06.415Z,-0.20
2018-02-02T01:33:34.734Z,-0.18
2018-02-02T01:36:04.628Z,-0.18
2018-02-02T01:38:32.962Z,-0.21
2018-02-02T01:41:01.282Z,-0.26
2018-02-02T01:43:29.650Z,-0.25
2018-02-02T01:45:58.012Z,-0.24
2018-02-02T01:48:26.353Z,-0.29
2018-02-02T01:50:55.485Z,-0.29
2018-02-02T01:53:23.826Z,-0.28
2018-02-02T01:55:52.974Z,-0.31
2018-02-02T01:58:21.301Z,-0.36
2018-02-02T02:00:49.641Z,-0.32
2018-02-02T02:03:18.022Z,-0.25
2018-02-02T02:05:46.382Z,-0.31
2018-02-02T02:08:14.746Z,-0.22
2018-02-02T02:10:43.074Z,-0.21
2018-02-02T02:13:12.215Z,-0.13
2018-02-02T02:15:40.555Z,-0.11
2018-02-02T02:18:08.915Z,-0.16
2018-02-02T02:20:37.300Z,-0.08
2018-02-02T02:23:06.439Z,-0.02
2018-02-02T02:25:34.754Z,0.01
2018-02-02T02:28:03.074Z,0.14
2018-02-02T02:30:31.454Z,0.16
2018-02-02T02:32:59.774Z,0.19
2018-02-02T02:35:28.130Z,0.37
2018-02-02T02:37:56.454Z,0.42
2018-02-02T02:40:24.905Z,0.50
2018-02-02T02:42:53.285Z,0.53
2018-02-02T02:45:21.623Z,0.48
2018-02-02T02:47:50.006Z,0.53
2018-02-02T02:50:18.370Z,0.61
2018-02-02T02:52:46.721Z,0.58
2018-02-02T02:55:15.029Z,0.55
2018-02-02T02:57:43.398Z,0.57
2018-02-02T03:00:12.501Z,0.63
2018-02-02T03:02:40.865Z,0.71
2018-02-02T03:05:09.961Z,0.63
2018-02-02T03:07:39.118Z,0.58
2018-02-02T03:10:07.445Z,0.51
2018-02-02T03:12:35.770Z,0.49
2018-02-02T03:15:04.159Z,0.58
2018-02-02T03:17:32.519Z,0.60
2018-02-02T03:20:00.889Z,0.66
2018-02-02T03:22:29.211Z,0.65
2018-02-02T03:24:58.310Z,0.77
2018-02-02T03:27:27.425Z,0.83
2018-02-02T03:29:55.754Z,0.74
2018-02-02T03:32:24.113Z,0.91
2018-02-02T03:34:52.439Z,0.91
2018-02-02T03:37:21.585Z,0.98
2018-02-02T03:39:49.926Z,0.91
2018-02-02T03:42:18.245Z,0.87
2018-02-02T03:44:46.613Z,0.79
2018-02-02T03:47:14.989Z,0.89
2018-02-02T03:49:43.489Z,0.90
2018-02-02T03:52:11.812Z,0.78
2018-02-02T03:54:40.933Z,0.89
2018-02-02T03:57:09.268Z,0.96
2018-02-02T03:59:37.625Z,0.80
2018-02-02T04:02:05.957Z,0.87
2018-02-02T04:04:34.313Z,0.81
2018-02-02T04:07:03.409Z,0.86
2018-02-02T04:09:32.505Z,0.73
2018-02-02T04:12:01.633Z,0.67
2018-02-02T04:14:29.954Z,0.68
2018-02-02T04:16:58.305Z,0.63
2018-02-02T04:19:26.630Z,0.63
2018-02-02T04:21:55.761Z,0.71
2018-02-02T04:24:24.108Z,0.72
2018-02-02T04:26:53.228Z,0.75
2018-02-02T04:29:21.537Z,0.72
2018-02-02T04:31:49.885Z,0.64
2018-02-02T04:34:18.200Z,0.52
2018-02-02T04:36:46.580Z,0.55
2018-02-02T04:39:14.918Z,0.50
2018-02-02T04:41:43.233Z,0.48
2018-02-02T04:44:11.581Z,0.50
2018-02-02T04:46:39.948Z,0.38
2018-02-02T04:49:08.277Z,0.36
2018-02-02T04:51:36.624Z,0.45
2018-02-02T04:54:04.984Z,0.35
2018-02-02T04:56:33.317Z,0.30
2018-02-02T04:59:02.452Z,0.34
2018-02-02T05:01:30.780Z,0.40
2018-02-02T05:03:59.117Z,0.54
2018-02-02T05:06:27.486Z,0.53
2018-02-02T05:08:55.812Z,0.59
2018-02-02T05:11:24.148Z,0.56
2018-02-02T05:13:52.481Z,0.46
2018-02-02T05:16:21.601Z,0.52
2018-02-02T05:18:49.936Z,0.63
2018-02-02T05:21:18.297Z,0.49
2018-02-02T05:23:46.676Z,0.48
2018-02-02T05:26:15.000Z,0.53
2018-02-02T05:28:43.420Z,0.43
2018-02-02T05:31:11.782Z,0.43
2018-02-02T05:33:40.112Z,0.41
2018-02-02T05:36:08.460Z,0.35
2018-02-02T05:38:36.832Z,0.34
2018-02-02T05:41:05.259Z,0.42
2018-02-02T05:43:34.400Z,0.33
2018-02-02T05:46:02.811Z,0.35
2018-02-02T05:48:31.584Z,0.34
2018-02-02T05:50:59.956Z,0.24
2018-02-02T05:53:28.272Z,0.23
2018-02-02T05:55:57.369Z,0.18
2018-02-02T05:58:35.512Z,0.22
2018-02-02T06:01:04.373Z,0.21
2018-02-02T06:03:33.500Z,0.14
2018-02-02T06:06:01.820Z,0.12
2018-02-02T06:08:30.180Z,0.04
2018-02-02T06:10:58.544Z,0.00
2018-02-02T06:13:26.912Z,-0.01
2018-02-02T06:15:55.284Z,-0.08
2018-02-02T06:18:23.624Z,-0.10
2018-02-02T06:20:52.768Z,-0.07
2018-02-02T06:23:21.115Z,-0.10
2018-02-02T06:25:49.524Z,-0.17
2018-02-02T06:28:17.855Z,-0.20
2018-02-02T06:30:47.004Z,-0.17
2018-02-02T06:33:16.504Z,-0.18
2018-02-02T06:35:44.867Z,-0.08
2018-02-02T06:38:13.986Z,-0.17
2018-02-02T06:40:42.779Z,-0.16
2018-02-02T06:43:11.176Z,-0.16
2018-02-02T06:45:40.271Z,-0.25
2018-02-02T06:48:08.855Z,-0.19
2018-02-02T06:50:37.252Z,-0.16
2018-02-02T06:53:06.367Z,-0.14
2018-02-02T06:55:34.766Z,-0.10
2018-02-02T06:58:03.156Z,-0.01
2018-02-02T07:00:31.500Z,-0.01
2018-02-02T07:03:00.256Z,0.03
2018-02-02T07:05:28.654Z,0.07
2018-02-02T07:07:57.767Z,0.24
2018-02-02T07:10:26.099Z,0.28
2018-02-02T07:12:55.252Z,0.34
2018-02-02T07:15:23.571Z,0.33
2018-02-02T07:17:51.939Z,0.39
2018-02-02T07:20:20.795Z,0.46
2018-02-02T07:22:49.387Z,0.52
2018-02-02T07:25:17.715Z,0.61
2018-02-02T07:27:46.071Z,0.62
2018-02-02T07:30:14.379Z,0.67
2018-02-02T07:32:42.763Z,0.72
2018-02-02T07:35:11.079Z,0.80
2018-02-02T07:37:39.423Z,0.84
2018-02-02T07:40:07.755Z,0.85
2018-02-02T07:42:36.103Z,0.95
2018-02-02T07:45:04.419Z,1.20
2018-02-02T07:47:33.171Z,1.37
2018-02-02T07:50:01.511Z,1.47
2018-02-02T07:52:29.867Z,1.58
2018-02-02T07:54:58.207Z,1.68
2018-02-02T07:57:26.592Z,1.74
2018-02-02T07:59:54.923Z,1.79
2018-02-02T08:02:24.015Z,1.93
2018-02-02T08:04:53.134Z,2.12
2018-02-02T08:07:21.459Z,2.31
2018-02-02T08:09:50.664Z,2.38
2018-02-02T08:12:19.003Z,2.33
2018-02-02T08:14:47.308Z,2.24
2018-02-02T08:17:15.664Z,2.22
2018-02-02T08:19:43.980Z,2.24
2018-02-02T08:22:12.363Z,2.29
2018-02-02T08:24:40.723Z,2.32
2018-02-02T08:27:09.070Z,2.36
2018-02-02T08:29:37.398Z,2.44
2018-02-02T08:32:05.766Z,2.51
2018-02-02T08:34:34.135Z,2.51
2018-02-02T08:37:02.463Z,2.54
2018-02-02T08:39:30.815Z,2.58
2018-02-02T08:41:59.891Z,2.64
2018-02-02T08:44:28.519Z,2.73
2018-02-02T08:46:56.854Z,2.76
2018-02-02T08:49:25.191Z,2.86
2018-02-02T08:51:53.580Z,2.93
2018-02-02T08:54:21.940Z,2.94
2018-02-02T08:56:50.246Z,3.00
2018-02-02T08:59:18.598Z,2.96
2018-02-02T09:04:51.090Z,3.12
2018-02-02T09:07:19.406Z,3.19
2018-02-02T09:09:47.746Z,3.28
2018-02-02T09:12:16.099Z,3.38
2018-02-02T09:14:44.419Z,3.44
2018-02-02T09:17:12.762Z,3.48
2018-02-02T09:19:41.082Z,3.53
2018-02-02T09:22:08.646Z,3.57
2018-02-02T09:24:37.006Z,3.67
2018-02-02T09:27:04.718Z,3.64
2018-02-02T09:29:33.805Z,3.73
2018-02-02T09:32:03.509Z,3.72
2018-02-02T09:34:32.621Z,3.74
2018-02-02T09:37:01.726Z,3.83
2018-02-02T09:39:30.087Z,3.85
2018-02-02T09:41:59.216Z,3.89
2018-02-02T09:44:28.290Z,3.95
2018-02-02T09:46:56.634Z,3.95
2018-02-02T09:49:24.942Z,4.02
2018-02-02T09:51:53.285Z,4.10
2018-02-02T09:54:21.598Z,4.10
2018-02-02T09:56:49.958Z,4.15
2018-02-02T09:59:19.419Z,4.18
2018-02-02T10:01:47.766Z,4.26
2018-02-02T10:04:16.130Z,4.27
2018-02-02T10:06:44.446Z,4.30
2018-02-02T10:09:12.798Z,4.42
2018-02-02T10:11:41.110Z,4.39
2018-02-02T10:14:09.445Z,4.46
2018-02-02T10:16:37.763Z,4.48
2018-02-02T10:19:06.126Z,4.50
2018-02-02T10:21:34.439Z,4.58
2018-02-02T10:24:02.824Z,4.59
2018-02-02T10:26:31.493Z,4.66
2018-02-02T10:28:59.845Z,4.69
2018-02-02T10:31:28.208Z,4.76
2018-02-02T10:33:56.517Z,4.79
2018-02-02T10:36:24.923Z,4.76
2018-02-02T10:38:53.278Z,4.81
2018-02-02T10:41:21.618Z,4.98
2018-02-02T10:43:49.934Z,5.03
2018-02-02T10:46:18.297Z,5.00
2018-02-02T10:48:46.610Z,4.99
2018-02-02T10:51:15.761Z,5.02
2018-02-02T10:53:44.143Z,5.00
2018-02-02T10:56:12.501Z,5.13
2018-02-02T10:58:40.809Z,5.13
2018-02-02T11:01:14.713Z,5.07
2018-02-02T11:03:44.807Z,5.20
2018-02-02T11:06:13.159Z,5.22
2018-02-02T11:08:42.254Z,5.26
2018-02-02T11:11:10.609Z,5.33
2018-02-02T11:13:38.961Z,5.37
2018-02-02T11:16:07.309Z,5.39
2018-02-02T11:18:45.397Z,5.40
2018-02-02T11:21:13.741Z,5.41
2018-02-02T11:23:43.573Z,5.42
2018-02-02T11:26:12.693Z,5.45
2018-02-02T11:28:41.049Z,5.46
2018-02-02T11:31:10.147Z,5.57
2018-02-02T11:33:39.290Z,5.57
2018-02-02T11:36:07.615Z,5.54
2018-02-02T11:38:36.749Z,5.61
2018-02-02T11:41:05.065Z,5.65
2018-02-02T11:43:33.429Z,5.62
2018-02-02T11:46:01.810Z,5.62
2018-02-02T11:48:30.197Z,5.64
2018-02-02T11:50:58.549Z,5.67
2018-02-02T11:53:26.886Z,5.68
2018-02-02T11:55:56.017Z,5.79
2018-02-02T11:58:24.340Z,5.88
2018-02-02T12:00:52.668Z,6.01
2018-02-02T12:03:21.033Z,6.10
2018-02-02T12:05:49.385Z,6.19
2018-02-02T12:08:18.533Z,6.15
2018-02-02T12:10:46.873Z,6.06
2018-02-02T12:13:15.257Z,6.04
2018-02-02T12:15:43.588Z,5.99
2018-02-02T12:18:11.942Z,6.00
2018-02-02T12:20:40.270Z,6.02
2018-02-02T12:23:10.726Z,6.00
2018-02-02T12:25:44.478Z,6.08
2018-02-02T12:28:26.608Z,6.30
2018-02-02T12:31:01.133Z,6.55
2018-02-02T12:33:43.916Z,6.71
2018-02-02T12:36:22.721Z,7.01
2018-02-02T12:39:01.589Z,7.31
2018-02-02T12:41:37.850Z,7.53
2018-02-02T12:44:15.624Z,7.52
2018-02-02T12:46:52.264Z,7.42
2018-02-02T12:49:39.600Z,7.28
2018-02-02T12:52:12.244Z,7.25
2018-02-02T12:54:46.769Z,7.17
2018-02-02T12:57:21.112Z,7.14
2018-02-02T12:59:59.033Z,7.56
2018-02-02T13:02:32.613Z,7.88
2018-02-02T13:05:03.041Z,7.91
2018-02-02T13:07:32.312Z,7.86
2018-02-02T13:10:00.668Z,7.71
2018-02-02T13:12:29.753Z,7.85
2018-02-02T13:14:58.877Z,7.78
2018-02-02T13:17:27.184Z,7.67
2018-02-02T13:19:55.936Z,7.79
2018-02-02T13:22:24.320Z,7.80
2018-02-02T13:24:52.636Z,7.64
2018-02-02T13:27:20.964Z,7.75
2018-02-02T13:29:49.297Z,7.54
2018-02-02T13:32:17.642Z,7.71
2018-02-02T13:34:45.996Z,7.82
2018-02-02T13:37:14.320Z,7.57
2018-02-02T13:39:43.154Z,7.09
2018-02-02T13:42:12.276Z,6.97
2018-02-02T13:44:40.580Z,7.26
2018-02-02T13:47:08.904Z,7.46
2018-02-02T13:49:38.025Z,7.41
2018-02-02T13:52:06.340Z,7.37
2018-02-02T13:54:34.692Z,7.27
2018-02-02T13:57:03.033Z,7.26
2018-02-02T13:59:31.359Z,7.45
2018-02-02T14:01:59.712Z,7.40
2018-02-02T14:04:28.812Z,7.17
2018-02-02T14:06:57.173Z,6.99
2018-02-02T14:09:25.490Z,7.11
2018-02-02T14:11:53.849Z,7.01
2018-02-02T14:14:22.187Z,7.07
2018-02-02T14:16:51.284Z,7.07
2018-02-02T14:19:20.393Z,7.12
2018-02-02T14:21:48.733Z,6.92
2018-02-02T14:24:17.052Z,6.88
2018-02-02T14:26:45.412Z,6.82
2018-02-02T14:29:14.504Z,6.77
2018-02-02T14:31:43.635Z,6.83
2018-02-02T14:34:11.984Z,6.71
2018-02-02T14:36:41.117Z,6.77
2018-02-02T14:39:10.213Z,6.86
2018-02-02T14:41:38.607Z,6.74
2018-02-02T14:44:06.968Z,6.86
2018-02-02T14:46:35.393Z,6.90
2018-02-02T14:49:04.519Z,6.81
2018-02-02T14:51:32.851Z,6.72
2018-02-02T14:54:01.207Z,6.59
2018-02-02T14:56:29.568Z,6.69
2018-02-02T14:58:59.026Z,6.51
2018-02-02T15:01:28.219Z,6.50
2018-02-02T15:03:56.572Z,6.47
2018-02-02T15:06:24.940Z,6.42
2018-02-02T15:08:53.269Z,6.42
2018-02-02T15:11:21.669Z,6.36
2018-02-02T15:13:50.192Z,6.24
2018-02-02T15:16:18.532Z,6.15
2018-02-02T15:18:46.886Z,6.15
2018-02-02T15:21:16.053Z,6.10
2018-02-02T15:23:44.380Z,6.02
2018-02-02T15:26:12.752Z,5.98
2018-02-02T15:28:41.067Z,5.97
2018-02-02T15:31:09.404Z,5.94
2018-02-02T15:33:37.775Z,6.00
2018-02-02T15:36:06.099Z,5.96
2018-02-02T15:38:34.451Z,5.89
2018-02-02T15:41:02.823Z,5.85
2018-02-02T15:43:31.147Z,5.80
2018-02-02T15:45:59.533Z,5.76
2018-02-02T15:48:27.863Z,5.71
2018-02-02T15:50:56.172Z,5.67
2018-02-02T15:53:24.537Z,5.68
2018-02-02T15:55:52.898Z,5.62
2018-02-02T15:58:21.255Z,5.58
2018-02-02T16:00:49.626Z,5.59
2018-02-02T16:03:19.356Z,5.56
2018-02-02T16:05:47.723Z,5.51
2018-02-02T16:08:16.087Z,5.48
2018-02-02T16:10:46.117Z,5.47
2018-02-02T16:13:14.440Z,5.43
2018-02-02T16:15:42.859Z,5.43
2018-02-02T16:18:13.277Z,5.43
2018-02-02T16:20:42.995Z,5.44
2018-02-02T16:23:12.100Z,5.41
2018-02-02T16:25:40.498Z,5.37
2018-02-02T16:28:08.848Z,5.36
2018-02-02T16:30:37.175Z,5.38
2018-02-02T16:33:05.543Z,5.28
2018-02-02T16:35:33.879Z,5.31
2018-02-02T16:38:03.011Z,5.31
2018-02-02T16:40:31.332Z,5.34
2018-02-02T16:42:59.679Z,5.34
2018-02-02T16:45:28.054Z,5.28
2018-02-02T16:47:56.370Z,5.27
2018-02-02T16:50:25.466Z,5.31
2018-02-02T16:52:55.186Z,5.32
2018-02-02T16:55:24.304Z,5.31
2018-02-02T16:57:52.658Z,5.30
2018-02-02T17:00:22.635Z,5.27
2018-02-02T17:02:51.039Z,5.27
2018-02-02T17:05:20.189Z,5.24
2018-02-02T17:07:48.659Z,5.22
2018-02-02T17:10:16.986Z,5.21
2018-02-02T17:12:45.346Z,5.20
2018-02-02T17:15:13.736Z,5.21
2018-02-02T17:17:42.110Z,5.21
2018-02-02T17:20:10.447Z,5.22
2018-02-02T17:22:38.882Z,5.21
2018-02-02T17:25:08.628Z,5.22
2018-02-02T17:27:36.958Z,5.21
2018-02-02T17:30:05.296Z,5.21
2018-02-02T17:32:33.645Z,5.17
2018-02-02T17:35:02.770Z,5.19
2018-02-02T17:37:31.090Z,5.16
2018-02-02T17:39:59.521Z,5.10
2018-02-02T17:42:27.849Z,5.16
2018-02-02T17:44:56.167Z,5.18
2018-02-02T17:47:24.516Z,5.18
2018-02-02T17:49:54.402Z,5.18
2018-02-02T17:52:22.762Z,5.19
2018-02-02T17:54:51.128Z,5.15
2018-02-02T17:57:19.596Z,5.13
2018-02-02T17:59:47.942Z,5.15
2018-02-02T18:02:20.504Z,5.12
2018-02-02T18:04:48.866Z,5.05
2018-02-02T18:07:17.622Z,5.07
2018-02-02T18:09:45.955Z,5.04
2018-02-02T18:12:22.110Z,5.03
2018-02-02T18:14:50.507Z,5.06
2018-02-02T18:17:19.642Z,5.05
2018-02-02T18:19:47.967Z,5.01
2018-02-02T18:22:18.054Z,4.98
2018-02-02T18:24:48.094Z,4.99
2018-02-02T18:27:17.855Z,4.64
2018-02-02T18:29:46.188Z,4.93
2018-02-02T18:32:15.327Z,4.92
2018-02-02T18:34:44.426Z,4.89
2018-02-02T18:37:12.978Z,4.82
2018-02-02T18:39:42.123Z,4.73
2018-02-02T18:42:10.532Z,4.66
2018-02-02T18:44:38.942Z,4.66
2018-02-02T18:47:07.295Z,4.67
2018-02-02T18:49:36.417Z,4.70
2018-02-02T18:52:04.746Z,4.69
2018-02-02T18:54:33.122Z,4.72
2018-02-02T18:57:01.467Z,4.68
2018-02-02T18:59:29.820Z,4.73
2018-02-02T19:01:58.181Z,4.76
2018-02-02T19:04:27.258Z,4.76
2018-02-02T19:06:55.637Z,4.78
2018-02-02T19:09:24.778Z,4.78
2018-02-02T19:11:54.489Z,4.79
2018-02-02T19:14:23.429Z,4.80
2018-02-02T19:16:51.795Z,4.84
2018-02-02T19:19:20.172Z,4.88
2018-02-02T19:21:48.565Z,4.89
2018-02-02T19:24:17.998Z,4.92
2018-02-02T19:26:47.870Z,4.94
2018-02-02T19:29:16.261Z,4.96
2018-02-02T19:31:44.627Z,4.97
2018-02-02T19:34:13.183Z,4.98
2018-02-02T19:36:42.277Z,5.03
2018-02-02T19:39:11.650Z,5.03
2018-02-02T19:41:43.504Z,4.99
2018-02-02T19:44:12.617Z,4.92
2018-02-02T19:46:40.961Z,4.91
2018-02-02T19:49:09.341Z,4.87
2018-02-02T19:51:37.849Z,4.86
2018-02-02T19:54:07.149Z,4.87
2018-02-02T19:56:35.526Z,4.88
2018-02-02T19:59:04.826Z,4.90
2018-02-02T20:01:33.137Z,4.90
2018-02-02T20:04:01.470Z,4.85
2018-02-02T20:06:30.724Z,4.85
2018-02-02T20:09:00.734Z,4.86
2018-02-02T20:11:29.850Z,4.91
2018-02-02T20:13:59.865Z,5.00
2018-02-02T20:16:29.881Z,4.94
2018-02-02T20:18:59.110Z,4.98
2018-02-02T20:21:30.205Z,4.89
2018-02-02T20:23:58.897Z,4.91
2018-02-02T20:26:27.265Z,4.90
2018-02-02T20:28:56.484Z,4.86
2018-02-02T20:31:25.428Z,4.84
2018-02-02T20:33:53.773Z,4.75
2018-02-02T20:36:23.826Z,4.73
2018-02-02T20:38:52.968Z,4.70
2018-02-02T20:41:22.146Z,4.66
2018-02-02T20:43:51.244Z,4.51
2018-02-02T20:46:20.014Z,4.51
2018-02-02T20:48:49.649Z,4.29
2018-02-02T20:51:18.033Z,4.18
2018-02-02T20:53:46.654Z,4.17
2018-02-02T20:56:14.993Z,4.15
2018-02-02T20:58:43.340Z,4.15
2018-02-02T21:01:11.704Z,4.21
2018-02-02T21:03:40.070Z,4.28
2018-02-02T21:06:08.777Z,4.38
2018-02-02T21:08:37.128Z,4.41
2018-02-02T21:11:06.235Z,4.42
2018-02-02T21:13:38.118Z,4.46
2018-02-02T21:16:07.054Z,4.50
2018-02-02T21:18:35.380Z,4.55
2018-02-02T21:21:03.735Z,4.58
2018-02-02T21:23:32.164Z,4.59
2018-02-02T21:26:00.588Z,4.60
2018-02-02T21:28:29.200Z,4.58
2018-02-02T21:30:58.290Z,4.64
2018-02-02T21:33:26.617Z,4.66
2018-02-02T21:35:55.046Z,4.68
2018-02-02T21:38:23.366Z,4.72
2018-02-02T21:40:52.492Z,4.73
2018-02-02T21:43:21.572Z,4.71
2018-02-02T21:45:49.936Z,4.71
2018-02-02T21:48:18.502Z,4.73
2018-02-02T21:50:46.868Z,4.74
2018-02-02T21:53:15.294Z,4.74
2018-02-02T21:55:44.945Z,4.77
2018-02-02T21:58:13.691Z,4.78
2018-02-02T22:00:42.989Z,4.87
2018-02-02T22:03:12.115Z,4.91
2018-02-02T22:05:41.029Z,4.86
2018-02-02T22:08:09.373Z,4.91
2018-02-02T22:10:38.468Z,4.90
2018-02-02T22:13:06.793Z,4.98
2018-02-02T22:15:35.658Z,4.92
2018-02-02T22:18:04.072Z,4.83
2018-02-02T22:20:32.417Z,4.84
2018-02-02T22:23:01.422Z,4.84
2018-02-02T22:25:30.529Z,4.80
2018-02-02T22:27:58.904Z,4.80
2018-02-02T22:30:27.804Z,4.79
2018-02-02T22:32:57.064Z,4.72
2018-02-02T22:35:25.392Z,4.71
2018-02-02T22:37:53.760Z,4.68
2018-02-02T22:40:22.892Z,4.70
2018-02-02T22:42:52.761Z,4.69
2018-02-02T22:45:21.140Z,4.69
2018-02-02T22:47:49.471Z,4.83
2018-02-02T22:50:17.836Z,4.83
2018-02-02T22:52:46.920Z,4.77
2018-02-02T22:55:16.036Z,4.80
2018-02-02T22:57:44.391Z,4.80
2018-02-02T23:00:14.601Z,4.79
2018-02-02T23:02:42.966Z,4.78
2018-02-02T23:05:11.335Z,4.84
2018-02-02T23:07:39.665Z,4.81
2018-02-02T23:10:08.038Z,4.81
2018-02-02T23:12:36.365Z,4.87
2018-02-02T23:15:04.755Z,4.90
2018-02-02T23:17:33.071Z,4.88
2018-02-02T23:20:02.156Z,4.84
2018-02-02T23:22:31.323Z,4.89
2018-02-02T23:24:59.643Z,4.90
2018-02-02T23:27:28.051Z,4.89
2018-02-02T23:29:56.368Z,4.82
2018-02-02T23:32:25.122Z,4.81
2018-02-02T23:34:53.475Z,4.83
2018-02-02T23:37:21.803Z,4.82
2018-02-02T23:39:50.179Z,4.78
2018-02-02T23:42:18.508Z,4.71
2018-02-02T23:44:47.253Z,4.73
2018-02-02T23:47:15.571Z,4.83
2018-02-02T23:49:44.440Z,4.76
2018-02-02T23:52:13.211Z,4.79
2018-02-02T23:54:41.556Z,4.83
2018-02-02T23:57:10.699Z,4.76
2018-02-02T23:59:39.815Z,4.75
